createdAt,value
2023-02-06T00:03:47.827Z,956.37
2023-02-06T00:18:49.741Z,956.64
2023-02-06T00:33:51.594Z,956.75
2023-02-06T00:48:53.422Z,957.06
2023-02-06T01:03:55.255Z,957.17
2023-02-06T01:18:57.107Z,957.41
2023-02-06T01:33:59.008Z,957.64
2023-02-06T01:49:00.960Z,957.75
2023-02-06T02:04:02.824Z,958.02
2023-02-06T02:19:04.700Z,958.45
2023-02-06T02:34:06.554Z,958.88
2023-02-06T02:49:08.414Z,959.03
2023-02-06T03:04:10.330Z,959.15
2023-02-06T03:19:12.208Z,959.36
2023-02-06T03:34:14.064Z,959.47
2023-02-06T03:49:15.900Z,959.73
2023-02-06T04:04:17.811Z,959.95
2023-02-06T04:19:19.726Z,959.99
2023-02-06T04:34:21.737Z,960.17
2023-02-06T04:49:23.630Z,960.29
2023-02-06T05:04:25.572Z,960.55
2023-02-06T05:19:27.535Z,960.65
2023-02-06T05:34:29.407Z,960.84
2023-02-06T05:49:31.288Z,961.09
2023-02-06T06:04:33.280Z,961.2
2023-02-06T06:19:35.237Z,961.51
2023-02-06T06:34:37.207Z,961.81
2023-02-06T06:49:39.142Z,962.15
2023-02-06T07:04:41.139Z,962.37
2023-02-06T07:19:43.060Z,962.75
2023-02-06T07:34:44.985Z,962.91
2023-02-06T07:49:46.939Z,963.11
2023-02-06T08:04:48.872Z,963.42
2023-02-06T08:19:50.773Z,963.63
2023-02-06T08:34:52.689Z,963.89
2023-02-06T08:49:54.606Z,964.18
2023-02-06T09:04:56.549Z,964.41
2023-02-06T09:19:58.435Z,964.68
2023-02-06T09:35:00.320Z,964.94
2023-02-06T09:50:02.443Z,965.29
2023-02-06T10:05:04.340Z,965.53
2023-02-06T10:20:06.271Z,965.79
2023-02-06T10:35:08.252Z,966.05
2023-02-06T10:50:10.136Z,966.38
2023-02-06T11:05:12.065Z,966.58
2023-02-06T11:20:13.977Z,967.07
2023-02-06T11:35:15.938Z,967.25
2023-02-06T11:50:17.855Z,967.51
2023-02-06T12:05:19.747Z,967.84
2023-02-06T12:20:21.639Z,967.98
2023-02-06T12:35:23.612Z,968.23
2023-02-06T12:50:25.492Z,968.54
2023-02-06T13:05:27.417Z,968.69
2023-02-06T13:20:30.397Z,968.95
2023-02-06T13:35:33.366Z,969.12
2023-02-06T13:50:35.274Z,969.41
2023-02-06T14:05:37.412Z,969.55
2023-02-06T14:20:39.464Z,969.76
2023-02-06T14:35:41.325Z,969.83
2023-02-06T14:50:43.276Z,969.98
2023-02-06T15:05:45.172Z,970.05
2023-02-06T15:20:47.115Z,970.25
2023-02-06T15:35:49.123Z,970.28
2023-02-06T15:50:51.040Z,970.23
2023-02-06T16:05:52.951Z,970.48
2023-02-06T16:20:54.885Z,970.57
2023-02-06T16:35:56.790Z,970.8
2023-02-06T16:50:58.671Z,970.99
2023-02-06T17:06:02.151Z,971.08
2023-02-06T17:21:04.234Z,971.18
2023-02-06T17:36:07.872Z,971.28
2023-02-06T17:51:09.946Z,971.29
2023-02-06T18:06:11.877Z,971.33
2023-02-06T18:21:13.961Z,971.39
2023-02-06T18:36:15.928Z,971.5
2023-02-06T18:51:17.833Z,971.61
2023-02-06T19:06:19.777Z,971.52
2023-02-06T19:21:21.669Z,971.47
2023-02-06T19:36:23.588Z,971.39
2023-02-06T19:51:25.531Z,971.42
2023-02-06T20:06:27.495Z,971.15
2023-02-06T20:21:29.567Z,971
2023-02-06T20:36:31.445Z,970.84
2023-02-06T20:51:33.356Z,970.75
2023-02-06T21:06:35.245Z,970.66
2023-02-06T21:21:37.150Z,970.52
2023-02-06T21:36:39.051Z,970.64
2023-02-06T21:51:40.953Z,970.63
2023-02-06T22:06:42.828Z,970.8
2023-02-06T22:21:44.751Z,971.01
2023-02-06T22:36:46.662Z,971.09
2023-02-06T22:51:48.625Z,971.15
2023-02-06T23:06:50.582Z,971.18
2023-02-06T23:21:52.461Z,971.19
2023-02-06T23:36:54.499Z,971.24
2023-02-06T23:51:56.435Z,971.39
